createdAt,value
2023-04-22T00:00:25.196Z,61.14
2023-04-22T00:02:53.690Z,61.42
2023-04-22T00:05:22.051Z,61.81
2023-04-22T00:07:49.934Z,62.28
2023-04-22T00:10:17.944Z,62.53
2023-04-22T00:12:45.581Z,61.96
2023-04-22T00:15:13.217Z,61.44
2023-04-22T00:17:41.360Z,61.49
2023-04-22T00:20:09.761Z,61.76
2023-04-22T00:22:37.542Z,61.64
2023-04-22T00:25:06.032Z,62.18
2023-04-22T00:27:33.754Z,61.50
2023-04-22T00:30:01.591Z,58.97
2023-04-22T00:32:30.803Z,59.61
2023-04-22T00:34:58.532Z,59.25
2023-04-22T00:37:26.199Z,59.12
2023-04-22T00:39:54.319Z,59.59
2023-04-22T00:42:21.990Z,60.28
2023-04-22T00:44:51.245Z,60.28
2023-04-22T00:47:19.328Z,60.88
2023-04-22T00:49:49.108Z,61.12
2023-04-22T00:52:16.818Z,61.54
2023-04-22T00:54:44.901Z,61.22
2023-04-22T00:57:12.648Z,61.49
2023-04-22T00:59:40.691Z,61.70
2023-04-22T01:02:09.045Z,61.94
2023-04-22T01:04:36.873Z,62.13
2023-04-22T01:07:04.554Z,62.03
2023-04-22T01:09:32.902Z,61.40
2023-04-22T01:12:00.569Z,61.86
2023-04-22T01:14:28.270Z,62.27
2023-04-22T01:16:56.648Z,62.21
2023-04-22T01:19:24.521Z,62.97
2023-04-22T01:21:52.203Z,62.86
2023-04-22T01:24:20.349Z,64.09
2023-04-22T01:26:48.564Z,64.18
2023-04-22T01:29:16.273Z,62.89
2023-04-22T01:31:44.471Z,63.25
2023-04-22T01:34:12.443Z,62.58
2023-04-22T01:36:40.125Z,62.98
2023-04-22T01:39:08.715Z,63.28
2023-04-22T01:41:36.737Z,64.57
2023-04-22T01:44:04.801Z,63.31
2023-04-22T01:46:34.016Z,62.50
2023-04-22T01:49:02.298Z,63.69
2023-04-22T01:51:29.999Z,63.62
2023-04-22T01:53:57.880Z,64.30
2023-04-22T01:56:25.504Z,65.48
2023-04-22T01:58:53.236Z,65.78
2023-04-22T02:01:21.734Z,66.80
2023-04-22T02:03:49.739Z,67.41
2023-04-22T02:06:17.530Z,66.92
2023-04-22T02:08:45.527Z,66.16
2023-04-22T02:11:14.003Z,66.10
2023-04-22T02:13:42.225Z,66.53
2023-04-22T02:16:10.160Z,64.28
2023-04-22T02:18:38.357Z,64.70
2023-04-22T02:21:09.002Z,65.07
2023-04-22T02:23:37.710Z,64.75
2023-04-22T02:26:07.250Z,64.91
2023-04-22T02:28:35.593Z,64.65
2023-04-22T02:31:03.658Z,64.38
2023-04-22T02:33:31.673Z,65.06
2023-04-22T02:35:59.385Z,64.22
2023-04-22T02:38:27.323Z,63.18
2023-04-22T02:40:55.443Z,63.46
2023-04-22T02:43:23.336Z,63.31
2023-04-22T02:45:52.283Z,63.24
2023-04-22T02:48:20.566Z,62.75
2023-04-22T02:50:48.318Z,62.02
2023-04-22T02:53:16.014Z,61.85
2023-04-22T02:55:44.062Z,62.30
2023-04-22T02:58:12.043Z,62.29
2023-04-22T03:00:39.833Z,62.29
2023-04-22T03:03:07.995Z,62.75
2023-04-22T03:05:35.852Z,62.46
2023-04-22T03:08:03.986Z,62.39
2023-04-22T03:10:31.940Z,62.42
2023-04-22T03:12:59.588Z,61.71
2023-04-22T03:15:27.317Z,61.26
2023-04-22T03:17:56.100Z,60.67
2023-04-22T03:20:24.096Z,60.68
2023-04-22T03:22:51.908Z,58.64
2023-04-22T03:25:20.079Z,59.54
2023-04-22T03:27:48.044Z,60.13
2023-04-22T03:30:15.790Z,59.55
2023-04-22T03:32:43.904Z,58.74
2023-04-22T03:35:13.185Z,58.32
2023-04-22T03:37:40.971Z,57.66
2023-04-22T03:40:09.883Z,58.08
2023-04-22T03:42:38.596Z,58.19
2023-04-22T03:45:07.051Z,58.14
2023-04-22T03:47:35.936Z,58.29
2023-04-22T03:50:04.579Z,57.75
2023-04-22T03:52:32.831Z,58.21
2023-04-22T03:55:01.950Z,57.67
2023-04-22T03:57:30.472Z,58.31
2023-04-22T03:59:59.402Z,58.41
2023-04-22T04:02:27.726Z,58.93
2023-04-22T04:04:57.286Z,58.92
2023-04-22T04:07:25.751Z,58.79
2023-04-22T04:09:53.470Z,58.56
2023-04-22T04:12:21.514Z,58.69
2023-04-22T04:14:49.272Z,59.31
2023-04-22T04:17:18.023Z,58.90
2023-04-22T04:19:46.331Z,59.06
2023-04-22T04:22:13.952Z,59.48
2023-04-22T04:24:42.738Z,58.95
2023-04-22T04:27:11.454Z,58.99
2023-04-22T04:29:40.981Z,59.84
2023-04-22T04:32:09.109Z,59.55
2023-04-22T04:34:37.181Z,59.45
2023-04-22T04:37:05.463Z,59.09
2023-04-22T04:39:34.299Z,58.43
2023-04-22T04:42:02.688Z,59.05
2023-04-22T04:44:30.556Z,58.93
2023-04-22T04:46:58.820Z,58.98
2023-04-22T04:49:26.965Z,58.68
2023-04-22T04:51:57.987Z,58.21
2023-04-22T04:54:26.783Z,57.65
2023-04-22T04:56:55.475Z,57.53
2023-04-22T04:59:23.705Z,57.46
2023-04-22T05:01:52.020Z,56.87
2023-04-22T05:04:20.503Z,56.78
2023-04-22T05:06:48.849Z,56.30
2023-04-22T05:09:16.884Z,55.95
2023-04-22T05:11:46.323Z,56.24
2023-04-22T05:14:15.011Z,56.95
2023-04-22T05:16:45.024Z,56.82
2023-04-22T05:19:15.988Z,56.08
2023-04-22T05:21:44.204Z,55.06
2023-04-22T05:24:14.324Z,54.18
2023-04-22T05:26:42.512Z,53.06
2023-04-22T05:29:10.852Z,52.72
2023-04-22T05:31:39.144Z,52.47
2023-04-22T05:34:08.039Z,50.31
2023-04-22T05:36:35.897Z,52.03
2023-04-22T05:39:04.153Z,50.32
2023-04-22T05:41:32.888Z,48.36
2023-04-22T05:44:01.364Z,49.83
2023-04-22T05:46:32.275Z,46.47
2023-04-22T05:49:00.340Z,47.30
2023-04-22T05:51:30.235Z,46.99
2023-04-22T05:53:58.225Z,47.92
2023-04-22T05:56:30.854Z,46.11
2023-04-22T05:58:58.743Z,47.20
2023-04-22T06:01:27.562Z,49.24
2023-04-22T06:03:56.546Z,48.34
2023-04-22T06:06:24.704Z,46.99
2023-04-22T06:08:52.456Z,46.76
2023-04-22T06:11:20.515Z,49.67
2023-04-22T06:13:48.243Z,51.55
2023-04-22T06:16:16.455Z,49.51
2023-04-22T06:18:44.351Z,49.63
2023-04-22T06:21:12.479Z,46.22
2023-04-22T06:23:40.435Z,44.10
2023-04-22T06:26:08.435Z,42.94
2023-04-22T06:28:36.446Z,40.45
2023-04-22T06:31:05.884Z,42.68
2023-04-22T06:33:33.937Z,40.20
2023-04-22T06:36:03.051Z,40.05
2023-04-22T06:38:34.202Z,40.91
2023-04-22T06:41:05.933Z,39.14
2023-04-22T06:43:34.132Z,40.34
2023-04-22T06:46:05.555Z,40.80
2023-04-22T06:48:33.510Z,39.65
2023-04-22T06:51:06.271Z,40.42
2023-04-22T06:53:34.122Z,39.75
2023-04-22T06:56:01.935Z,38.77
2023-04-22T06:58:30.676Z,37.74
2023-04-22T07:00:58.412Z,37.68
2023-04-22T07:03:26.453Z,38.70
2023-04-22T07:05:55.626Z,37.90
2023-04-22T07:08:23.342Z,38.65
2023-04-22T07:10:51.100Z,37.40
2023-04-22T07:13:21.826Z,37.36
2023-04-22T07:15:49.469Z,37.88
2023-04-22T07:18:19.581Z,38.63
2023-04-22T07:20:47.595Z,38.22
2023-04-22T07:23:15.458Z,37.29
2023-04-22T07:25:43.293Z,38.26
2023-04-22T07:28:11.222Z,38.54
2023-04-22T07:30:39.482Z,38.85
2023-04-22T07:33:08.139Z,39.68
2023-04-22T07:35:39.046Z,38.03
2023-04-22T07:38:08.135Z,38.62
2023-04-22T07:40:37.675Z,38.56
2023-04-22T07:43:05.470Z,37.24
2023-04-22T07:45:33.500Z,38.21
2023-04-22T07:48:01.763Z,35.59
2023-04-22T07:50:29.557Z,36.43
2023-04-22T07:52:57.806Z,35.23
2023-04-22T07:55:25.812Z,34.06
2023-04-22T07:57:53.680Z,35.45
2023-04-22T08:00:21.557Z,34.69
2023-04-22T08:02:49.609Z,35.25
2023-04-22T08:05:17.599Z,35.12
2023-04-22T08:07:45.248Z,35.55
2023-04-22T08:10:13.602Z,36.08
2023-04-22T08:12:41.391Z,34.50
2023-04-22T08:15:09.482Z,36.80
2023-04-22T08:17:38.508Z,34.72
2023-04-22T08:20:08.094Z,33.37
2023-04-22T08:22:37.043Z,33.28
2023-04-22T08:25:06.035Z,36.03
2023-04-22T08:27:33.653Z,35.21
2023-04-22T08:30:01.684Z,33.87
2023-04-22T08:32:29.826Z,33.55
2023-04-22T08:35:04.001Z,34.33
2023-04-22T08:37:34.030Z,33.75
2023-04-22T08:40:05.210Z,34.78
2023-04-22T08:42:34.049Z,35.36
2023-04-22T08:45:05.318Z,33.50
2023-04-22T08:47:34.230Z,33.98
2023-04-22T08:50:03.635Z,32.21
2023-04-22T08:52:34.473Z,33.05
2023-04-22T08:55:02.958Z,33.84
2023-04-22T08:57:32.062Z,33.28
2023-04-22T09:00:00.388Z,34.75
2023-04-22T09:02:29.150Z,30.96
2023-04-22T09:04:56.898Z,32.35
2023-04-22T09:07:27.373Z,31.51
2023-04-22T09:09:55.873Z,34.22
2023-04-22T09:12:23.983Z,32.52
2023-04-22T09:14:52.656Z,32.72
2023-04-22T09:17:40.468Z,31.99
2023-04-22T09:20:08.695Z,31.56
2023-04-22T09:22:42.909Z,30.50
2023-04-22T09:25:21.525Z,31.00
2023-04-22T09:27:50.716Z,32.36
2023-04-22T09:30:24.649Z,32.58
2023-04-22T09:32:53.751Z,34.19
2023-04-22T09:35:30.890Z,30.99
2023-04-22T09:38:01.294Z,32.65
2023-04-22T09:40:30.764Z,31.91
2023-04-22T09:43:01.916Z,30.66
2023-04-22T09:45:33.847Z,30.34
2023-04-22T09:48:09.777Z,30.99
2023-04-22T09:50:39.350Z,29.63
2023-04-22T09:53:08.800Z,28.86
2023-04-22T09:55:39.714Z,30.04
2023-04-22T09:58:09.894Z,30.21
2023-04-22T10:00:42.085Z,32.44
2023-04-22T10:03:11.226Z,30.07
2023-04-22T10:05:40.370Z,31.34
2023-04-22T10:08:10.173Z,30.56
2023-04-22T10:10:38.740Z,31.02
2023-04-22T10:13:06.908Z,26.81
2023-04-22T10:15:53.946Z,33.41
2023-04-22T10:18:24.557Z,27.28
2023-04-22T10:20:54.600Z,30.44
2023-04-22T10:23:24.359Z,30.72
2023-04-22T10:25:55.977Z,30.47
2023-04-22T10:28:25.651Z,28.97
2023-04-22T10:30:53.801Z,30.27
2023-04-22T10:33:21.316Z,28.37
2023-04-22T10:36:15.253Z,27.51
2023-04-22T10:38:55.040Z,30.08
2023-04-22T10:41:31.299Z,26.58
2023-04-22T10:44:07.019Z,30.55
2023-04-22T10:46:35.335Z,28.29
2023-04-22T10:49:17.835Z,31.33
2023-04-22T10:51:56.750Z,28.30
2023-04-22T10:54:30.285Z,26.52
2023-04-22T10:57:09.572Z,25.95
2023-04-22T10:59:49.986Z,28.20
2023-04-22T11:02:20.137Z,26.41
2023-04-22T11:04:48.275Z,25.71
2023-04-22T11:07:18.844Z,25.79
2023-04-22T11:09:50.826Z,26.04
2023-04-22T11:12:36.455Z,27.10
2023-04-22T11:15:14.787Z,26.11
2023-04-22T11:17:43.920Z,25.33
2023-04-22T11:20:13.421Z,26.32
2023-04-22T11:22:43.644Z,25.54
2023-04-22T11:25:11.622Z,25.08
2023-04-22T11:27:40.921Z,24.88
2023-04-22T11:30:11.052Z,25.45
2023-04-22T11:32:42.126Z,24.30
2023-04-22T11:35:11.652Z,23.61
2023-04-22T11:37:44.069Z,24.56
2023-04-22T11:40:28.829Z,25.39
2023-04-22T11:43:00.698Z,25.73
2023-04-22T11:45:30.504Z,24.44
2023-04-22T11:47:58.623Z,24.49
2023-04-22T11:50:29.005Z,24.59
2023-04-22T11:52:59.529Z,24.73
2023-04-22T11:55:28.391Z,23.90
2023-04-22T11:58:01.059Z,23.95
2023-04-22T12:00:31.509Z,23.21
2023-04-22T12:03:10.842Z,21.03
2023-04-22T12:05:44.503Z,22.64
2023-04-22T12:08:19.460Z,21.70
2023-04-22T12:10:56.605Z,25.92
2023-04-22T12:13:50.672Z,25.00
2023-04-22T12:16:19.242Z,24.02
2023-04-22T12:18:55.088Z,25.79
2023-04-22T12:21:24.681Z,26.08
2023-04-22T12:24:03.311Z,25.74
2023-04-22T12:26:31.360Z,23.08
2023-04-22T12:29:00.539Z,26.52
2023-04-22T12:31:28.431Z,24.50
2023-04-22T12:33:56.468Z,24.65
2023-04-22T12:36:24.662Z,23.97
2023-04-22T12:38:52.945Z,22.57
2023-04-22T12:41:20.562Z,24.83
2023-04-22T12:43:48.462Z,25.14
2023-04-22T12:46:16.717Z,24.53
2023-04-22T12:48:44.397Z,25.29
2023-04-22T12:51:12.376Z,25.04
2023-04-22T12:53:40.197Z,26.46
2023-04-22T12:56:08.157Z,25.44
2023-04-22T12:58:36.161Z,27.53
2023-04-22T13:01:04.064Z,27.27
2023-04-22T13:03:32.061Z,26.05
2023-04-22T13:06:00.154Z,26.78
2023-04-22T13:08:27.868Z,26.83
2023-04-22T13:10:55.551Z,24.83
2023-04-22T13:13:23.517Z,25.52
2023-04-22T13:15:51.249Z,28.74
2023-04-22T13:18:19.534Z,28.11
2023-04-22T13:20:47.515Z,28.74
2023-04-22T13:23:15.250Z,27.34
2023-04-22T13:25:43.115Z,28.64
2023-04-22T13:28:11.055Z,28.33
2023-04-22T13:30:39.132Z,28.81
2023-04-22T13:33:07.086Z,28.06
2023-04-22T13:35:35.687Z,29.05
2023-04-22T13:38:03.981Z,28.23
2023-04-22T13:40:31.848Z,29.32
2023-04-22T13:42:59.813Z,29.03
2023-04-22T13:45:27.482Z,29.54
2023-04-22T13:47:55.386Z,29.47
2023-04-22T13:50:23.992Z,29.67
2023-04-22T13:52:51.786Z,29.07
2023-04-22T13:55:19.434Z,28.91
2023-04-22T13:57:47.411Z,28.66
2023-04-22T14:00:15.237Z,27.90
2023-04-22T14:02:44.975Z,28.90
2023-04-22T14:05:12.644Z,28.88
2023-04-22T14:07:40.341Z,27.40
2023-04-22T14:10:08.506Z,26.45
2023-04-22T14:12:39.002Z,24.94
2023-04-22T14:15:06.994Z,25.52
2023-04-22T14:17:35.044Z,24.03
2023-04-22T14:20:03.787Z,26.11
2023-04-22T14:22:32.040Z,25.46
2023-04-22T14:25:00.111Z,26.20
2023-04-22T14:27:27.756Z,27.27
2023-04-22T14:29:55.615Z,26.12
2023-04-22T14:32:23.700Z,27.48
2023-04-22T14:34:52.059Z,27.51
2023-04-22T14:37:20.187Z,27.69
2023-04-22T14:39:48.904Z,27.74
2023-04-22T14:42:16.728Z,28.11
2023-04-22T14:44:44.642Z,29.61
2023-04-22T14:47:12.571Z,27.97
2023-04-22T14:49:42.394Z,28.05
2023-04-22T14:52:10.665Z,29.33
2023-04-22T14:54:39.692Z,28.35
2023-04-22T14:57:07.845Z,28.69
2023-04-22T14:59:35.585Z,28.95
2023-04-22T15:02:03.925Z,28.37
2023-04-22T15:04:31.773Z,28.74
2023-04-22T15:06:59.712Z,28.50
2023-04-22T15:09:27.726Z,28.18
2023-04-22T15:11:55.451Z,33.71
2023-04-22T15:14:23.050Z,31.97
2023-04-22T15:16:52.035Z,26.68
2023-04-22T15:19:19.670Z,29.01
2023-04-22T15:21:47.328Z,28.79
2023-04-22T15:24:15.281Z,30.84
2023-04-22T15:26:42.925Z,29.87
2023-04-22T15:29:10.537Z,29.86
2023-04-22T15:31:38.596Z,30.82
2023-04-22T15:34:06.215Z,30.53
2023-04-22T15:36:34.129Z,29.60
2023-04-22T15:39:02.969Z,30.06
2023-04-22T15:41:31.558Z,28.87
2023-04-22T15:43:59.610Z,29.46
2023-04-22T15:46:31.989Z,28.95
2023-04-22T15:49:00.558Z,29.51
2023-04-22T15:51:29.237Z,29.37
2023-04-22T15:53:57.493Z,28.65
2023-04-22T15:56:25.589Z,28.62
2023-04-22T15:58:53.911Z,28.30
2023-04-22T16:01:21.572Z,28.99
2023-04-22T16:03:49.789Z,28.14
2023-04-22T16:06:18.283Z,27.71
2023-04-22T16:08:46.476Z,28.69
2023-04-22T16:11:15.003Z,28.16
2023-04-22T16:13:42.850Z,28.33
2023-04-22T16:16:10.743Z,28.42
2023-04-22T16:18:39.993Z,27.74
2023-04-22T16:21:15.298Z,28.16
2023-04-22T16:23:43.330Z,28.34
2023-04-22T16:26:11.007Z,29.54
2023-04-22T16:28:38.849Z,29.70
2023-04-22T16:31:07.265Z,30.36
2023-04-22T16:33:35.929Z,29.49
2023-04-22T16:36:04.475Z,29.94
2023-04-22T16:38:32.538Z,30.25
2023-04-22T16:41:00.482Z,30.12
2023-04-22T16:43:28.678Z,29.32
2023-04-22T16:45:57.022Z,29.39
2023-04-22T16:48:24.782Z,30.46
2023-04-22T16:50:52.522Z,30.24
2023-04-22T16:53:20.427Z,30.45
2023-04-22T16:55:48.111Z,31.05
2023-04-22T16:58:16.072Z,31.31
2023-04-22T17:00:45.713Z,31.92
2023-04-22T17:03:15.089Z,31.60
2023-04-22T17:05:42.907Z,32.02
2023-04-22T17:08:10.837Z,32.87
2023-04-22T17:10:39.460Z,34.02
2023-04-22T17:13:07.329Z,32.61
2023-04-22T17:15:35.340Z,34.01
2023-04-22T17:18:03.413Z,34.33
2023-04-22T17:20:31.370Z,34.32
2023-04-22T17:22:59.349Z,34.31
2023-04-22T17:25:27.059Z,35.02
2023-04-22T17:27:54.691Z,34.41
2023-04-22T17:30:23.118Z,35.20
2023-04-22T17:32:50.835Z,34.85
2023-04-22T17:35:18.595Z,35.79
2023-04-22T17:37:46.549Z,37.31
2023-04-22T17:40:14.246Z,39.22
2023-04-22T17:42:46.313Z,40.09
2023-04-22T17:45:14.633Z,40.57
2023-04-22T17:47:42.536Z,43.34
2023-04-22T17:50:10.788Z,43.29
2023-04-22T17:52:39.089Z,44.91
2023-04-22T17:55:07.712Z,44.34
2023-04-22T17:57:35.396Z,45.76
2023-04-22T18:00:03.868Z,46.39
2023-04-22T18:02:38.969Z,46.54
2023-04-22T18:05:07.893Z,45.72
2023-04-22T18:07:35.767Z,45.90
2023-04-22T18:10:03.981Z,44.46
2023-04-22T18:12:32.099Z,43.45
2023-04-22T18:14:59.807Z,42.26
2023-04-22T18:17:29.578Z,41.64
2023-04-22T18:20:13.788Z,42.61
2023-04-22T18:22:49.604Z,44.60
2023-04-22T18:25:17.859Z,44.78
2023-04-22T18:27:45.956Z,46.13
2023-04-22T18:30:16.659Z,44.90
2023-04-22T18:32:44.687Z,44.39
2023-04-22T18:35:12.359Z,45.65
2023-04-22T18:37:40.073Z,45.05
2023-04-22T18:40:08.779Z,45.36
2023-04-22T18:42:37.024Z,46.23
2023-04-22T18:45:06.718Z,46.16
2023-04-22T18:47:34.809Z,47.17
2023-04-22T18:50:03.439Z,48.47
2023-04-22T18:52:31.458Z,47.30
2023-04-22T18:54:59.398Z,49.44
2023-04-22T18:57:27.148Z,49.03
2023-04-22T18:59:55.736Z,47.95
2023-04-22T19:02:23.969Z,47.89
2023-04-22T19:04:52.025Z,48.10
2023-04-22T19:07:19.974Z,49.48
2023-04-22T19:09:48.129Z,47.47
2023-04-22T19:12:16.107Z,49.03
2023-04-22T19:14:46.501Z,48.77
2023-04-22T19:17:15.031Z,49.20
2023-04-22T19:19:43.217Z,49.24
2023-04-22T19:22:11.819Z,48.48
2023-04-22T19:24:40.095Z,50.56
2023-04-22T19:27:07.962Z,48.98
2023-04-22T19:29:35.732Z,50.00
2023-04-22T19:32:04.099Z,50.23
2023-04-22T19:34:31.844Z,48.39
2023-04-22T19:36:59.463Z,48.23
2023-04-22T19:39:27.659Z,48.82
2023-04-22T19:41:55.711Z,48.49
2023-04-22T19:44:24.441Z,45.61
2023-04-22T19:46:52.542Z,47.36
2023-04-22T19:49:21.381Z,47.20
2023-04-22T19:51:49.627Z,48.91
2023-04-22T19:54:21.160Z,49.44
2023-04-22T19:56:49.142Z,49.46
2023-04-22T19:59:17.498Z,49.96
2023-04-22T20:01:45.859Z,49.35
2023-04-22T20:04:15.422Z,51.28
2023-04-22T20:06:46.305Z,50.71
2023-04-22T20:09:14.744Z,51.50
2023-04-22T20:11:42.762Z,51.34
2023-04-22T20:14:12.352Z,51.17
2023-04-22T20:16:40.558Z,51.44
2023-04-22T20:19:09.160Z,52.53
2023-04-22T20:21:37.382Z,51.93
2023-04-22T20:24:07.543Z,52.28
2023-04-22T20:26:35.515Z,52.25
2023-04-22T20:29:03.515Z,52.04
2023-04-22T20:31:31.718Z,53.43
2023-04-22T20:33:59.576Z,52.99
2023-04-22T20:36:27.699Z,52.08
2023-04-22T20:39:02.746Z,51.42
2023-04-22T20:41:37.521Z,50.91
2023-04-22T20:44:10.038Z,51.31
2023-04-22T20:46:38.078Z,50.64
2023-04-22T20:49:08.488Z,50.70
2023-04-22T20:51:38.620Z,50.46
2023-04-22T20:54:14.718Z,53.65
2023-04-22T20:56:53.745Z,51.01
2023-04-22T20:59:21.751Z,51.61
2023-04-22T21:01:50.618Z,52.06
2023-04-22T21:04:18.429Z,51.93
2023-04-22T21:06:50.761Z,51.12
2023-04-22T21:09:20.468Z,50.60
2023-04-22T21:11:49.078Z,50.48
2023-04-22T21:14:17.391Z,50.97
2023-04-22T21:16:50.008Z,50.94
2023-04-22T21:19:18.492Z,49.69
2023-04-22T21:21:46.898Z,50.71
2023-04-22T21:24:14.697Z,49.50
2023-04-22T21:26:43.467Z,49.27
2023-04-22T21:29:11.443Z,50.67
2023-04-22T21:31:39.144Z,50.62
2023-04-22T21:34:07.086Z,50.24
2023-04-22T21:36:35.069Z,52.48
2023-04-22T21:39:03.005Z,52.09
2023-04-22T21:41:31.394Z,51.99
2023-04-22T21:43:59.059Z,52.62
2023-04-22T21:46:26.658Z,50.38
2023-04-22T21:48:54.629Z,50.69
2023-04-22T21:51:22.458Z,50.81
2023-04-22T21:53:50.494Z,52.50
2023-04-22T21:56:19.088Z,51.43
2023-04-22T21:58:47.512Z,51.65
2023-04-22T22:01:15.397Z,52.09
2023-04-22T22:03:43.790Z,51.68
2023-04-22T22:06:11.571Z,52.84
2023-04-22T22:08:39.288Z,53.11
2023-04-22T22:11:10.681Z,53.52
2023-04-22T22:13:42.473Z,53.30
2023-04-22T22:16:10.513Z,54.52
2023-04-22T22:18:38.288Z,53.13
2023-04-22T22:21:06.110Z,53.43
2023-04-22T22:23:34.151Z,52.69
2023-04-22T22:26:01.996Z,53.21
2023-04-22T22:28:29.758Z,52.94
2023-04-22T22:30:57.747Z,54.04
2023-04-22T22:33:25.466Z,53.12
2023-04-22T22:35:53.154Z,54.23
2023-04-22T22:38:21.219Z,54.80
2023-04-22T22:40:49.070Z,55.37
2023-04-22T22:43:16.739Z,54.95
2023-04-22T22:45:44.720Z,55.76
2023-04-22T22:48:12.485Z,54.50
2023-04-22T22:50:40.474Z,54.84
2023-04-22T22:53:08.569Z,52.63
2023-04-22T22:55:36.329Z,52.68
2023-04-22T22:58:04.244Z,51.99
2023-04-22T23:00:32.259Z,53.06
2023-04-22T23:03:00.551Z,52.37
2023-04-22T23:05:28.493Z,52.71
2023-04-22T23:07:56.511Z,54.46
2023-04-22T23:10:24.218Z,54.31
2023-04-22T23:12:51.927Z,54.19
2023-04-22T23:15:20.597Z,55.15
2023-04-22T23:17:50.290Z,54.33
2023-04-22T23:20:18.159Z,53.22
2023-04-22T23:22:49.728Z,54.23
2023-04-22T23:25:17.293Z,54.43
2023-04-22T23:27:45.119Z,54.03
2023-04-22T23:30:13.621Z,54.97
2023-04-22T23:32:43.218Z,55.38
2023-04-22T23:35:12.415Z,53.89
2023-04-22T23:37:44.324Z,54.71
2023-04-22T23:40:12.649Z,55.44
2023-04-22T23:42:40.692Z,55.22
2023-04-22T23:45:09.267Z,55.34
2023-04-22T23:47:40.226Z,55.43
2023-04-22T23:50:08.695Z,55.20
2023-04-22T23:52:36.522Z,54.83
2023-04-22T23:55:05.420Z,55.41
2023-04-22T23:57:33.740Z,55.52
